Time;durP1;ratioP1;P1;durP2;ratioP2;P2;SDS_P1;SDS_P2;PMS_P1;PMS_P2;Temp;Humidity;BMP_temperature;BMP_pressure;BME280_temperature;BME280_humidity;BME280_pressure;Samples;Min_cycle;Max_cycle;Signal;HPM_P1;HPM_P2
2022/11/26 00:00:56;;;;;;;8.98;5.65;;;;;;;3.56;100.00;100422.88;1693314;83;21542;-60
2022/11/26 00:03:25;;;;;;;8.45;6.17;;;;;;;3.56;100.00;100424.16;1692608;84;21039;-61
2022/11/26 00:05:53;;;;;;;9.40;5.70;;;;;;;3.55;100.00;100428.50;1685521;83;21047;-71
2022/11/26 00:08:34;;;;;;;8.80;5.70;;;;;;;3.54;100.00;100421.73;1686594;84;21584;-64
2022/11/26 00:11:01;;;;;;;8.78;6.03;;;;;;;3.54;100.00;100430.75;1679236;84;22139;-72
2022/11/26 00:13:30;;;;;;;9.30;5.77;;;;;;;3.58;100.00;100414.55;1723729;81;22403;-61
2022/11/26 00:15:57;;;;;;;8.05;5.20;;;;;;;3.60;100.00;100423.78;1723104;81;21163;-63
2022/11/26 00:18:25;;;;;;;9.75;6.37;;;;;;;3.56;100.00;100432.73;1723715;81;21056;-61
2022/11/26 00:20:55;;;;;;;11.10;6.67;;;;;;;3.56;100.00;100431.45;1723608;81;21096;-63
2022/11/26 00:23:23;;;;;;;9.23;5.97;;;;;;;3.59;100.00;100429.05;1723696;81;21538;-61
2022/11/26 00:25:55;;;;;;;8.10;5.03;;;;;;;3.63;100.00;100436.38;1723577;81;20957;-62
2022/11/26 00:28:34;;;;;;;8.60;4.70;;;;;;;3.66;100.00;100440.47;1723380;82;21571;-63
2022/11/26 00:31:04;;;;;;;8.33;4.90;;;;;;;3.68;100.00;100439.06;1723469;83;21016;-59
2022/11/26 00:33:31;;;;;;;6.78;4.95;;;;;;;3.70;100.00;100444.88;1723804;81;20974;-59
2022/11/26 00:36:07;;;;;;;7.17;4.33;;;;;;;3.71;100.00;100447.79;1715318;82;21250;-65
2022/11/26 00:38:35;;;;;;;6.70;4.10;;;;;;;3.68;100.00;100433.91;1726751;82;20967;-70
2022/11/26 00:41:03;;;;;;;6.40;4.62;;;;;;;3.69;100.00;100444.55;1729251;81;21608;-60
2022/11/26 00:43:30;;;;;;;6.22;4.10;;;;;;;3.63;100.00;100444.11;1729341;81;21527;-60
2022/11/26 00:45:57;;;;;;;7.13;3.57;;;;;;;3.64;100.00;100444.48;1747131;81;20978;-61
2022/11/26 00:48:25;;;;;;;6.22;3.75;;;;;;;3.66;100.00;100451.59;1733328;81;21680;-60
2022/11/26 00:50:52;;;;;;;6.87;3.40;;;;;;;3.69;100.00;100454.38;1732417;81;20897;-60
2022/11/26 00:53:21;;;;;;;6.22;3.52;;;;;;;3.69;100.00;100456.96;1733355;81;21676;-61
2022/11/26 00:55:49;;;;;;;6.28;3.40;;;;;;;3.70;100.00;100449.56;1733244;81;20992;-67
2022/11/26 00:58:28;;;;;;;7.00;3.95;;;;;;;3.70;100.00;100444.41;1733006;82;21032;-60
2022/11/26 01:00:58;;;;;;;5.47;3.20;;;;;;;3.70;100.00;100441.83;1732810;82;21138;-61
2022/11/26 01:03:26;;;;;;;5.78;3.60;;;;;;;3.73;100.00;100445.91;1733418;81;21075;-61
2022/11/26 01:05:56;;;;;;;6.07;3.37;;;;;;;3.72;100.00;100446.39;1732760;81;20874;-61
2022/11/26 01:08:34;;;;;;;7.15;3.25;;;;;;;3.73;100.00;100447.20;1733259;81;21257;-71
2022/11/26 01:11:03;;;;;;;4.57;2.70;;;;;;;3.73;100.00;100456.22;1733456;82;21040;-60
2022/11/26 01:13:30;;;;;;;5.62;3.60;;;;;;;3.71;100.00;100442.63;1733224;81;21359;-62
2022/11/26 01:15:58;;;;;;;6.90;3.93;;;;;;;3.68;100.00;100446.31;1734293;81;21059;-60
2022/11/26 01:18:25;;;;;;;5.12;3.22;;;;;;;3.65;100.00;100440.13;1772064;80;21152;-68
2022/11/26 01:20:53;;;;;;;4.93;2.90;;;;;;;3.61;100.00;100438.77;1772475;80;21105;-62
2022/11/26 01:23:20;;;;;;;6.15;3.52;;;;;;;3.60;100.00;100446.98;1772393;80;21165;-60
2022/11/26 01:25:47;;;;;;;6.37;3.65;;;;;;;3.58;100.00;100435.98;1771754;80;21300;-70
2022/11/26 01:28:17;;;;;;;5.47;3.25;;;;;;;3.56;100.00;100439.63;1769518;80;21414;-60
2022/11/26 01:30:44;;;;;;;5.17;3.40;;;;;;;3.46;100.00;100440.91;1733118;81;21013;-60
2022/11/26 01:33:13;;;;;;;5.93;3.70;;;;;;;3.45;100.00;100444.89;1733281;82;21762;-61
2022/11/26 01:35:40;;;;;;;6.67;3.87;;;;;;;3.43;100.00;100445.52;1726800;81;21157;-63
2022/11/26 01:38:12;;;;;;;6.45;3.87;;;;;;;3.39;100.00;100441.91;1723266;81;21227;-70
2022/11/26 01:40:56;;;;;;;5.95;3.70;;;;;;;3.35;100.00;100447.46;1723504;81;21064;-60
2022/11/26 01:43:30;;;;;;;6.22;3.42;;;;;;;3.34;100.00;100450.99;1692374;84;20993;-65
2022/11/26 01:45:57;;;;;;;7.05;3.62;;;;;;;3.32;100.00;100447.72;1692205;83;21098;-61
2022/11/26 01:48:32;;;;;;;6.33;3.65;;;;;;;3.30;100.00;100452.20;1693091;83;21486;-60
2022/11/26 01:51:07;;;;;;;7.28;3.45;;;;;;;3.29;100.00;100452.65;1692912;84;21880;-70
2022/11/26 01:53:54;;;;;;;6.12;3.47;;;;;;;3.28;100.00;100457.47;1691551;83;21572;-60
2022/11/26 01:56:49;;;;;;;5.45;2.90;;;;;;;3.30;100.00;100457.36;1683430;84;21031;-60
2022/11/26 01:59:24;;;;;;;6.12;3.22;;;;;;;3.30;100.00;100476.20;1693372;83;21634;-59
2022/11/26 02:01:53;;;;;;;6.47;3.30;;;;;;;3.33;100.00;100463.06;1693356;83;21505;-60
2022/11/26 02:04:27;;;;;;;6.30;3.45;;;;;;;3.39;100.00;100469.44;1723730;81;21260;-71
2022/11/26 02:06:55;;;;;;;5.75;3.40;;;;;;;3.40;100.00;100473.64;1692731;83;20995;-61
2022/11/26 02:09:23;;;;;;;5.45;3.52;;;;;;;3.40;100.00;100468.01;1723570;81;20898;-60
2022/11/26 02:11:50;;;;;;;6.90;3.65;;;;;;;3.39;100.00;100468.15;1723703;83;20926;-60
2022/11/26 02:14:31;;;;;;;6.60;3.47;;;;;;;3.40;100.00;100464.62;1723578;83;20957;-69
2022/11/26 02:17:45;;;;;;;6.15;3.47;;;;;;;3.45;100.00;100463.77;1701673;81;21670;-61
2022/11/26 02:20:49;;;;;;;6.67;3.27;;;;;;;3.47;100.00;100459.77;1692725;83;21462;-60
2022/11/26 02:23:46;;;;;;;6.33;3.58;;;;;;;3.45;100.00;100459.91;1722974;81;21332;-69
2022/11/26 02:26:34;;;;;;;6.92;3.30;;;;;;;3.42;100.00;100464.03;1693226;83;20878;-60
2022/11/26 02:29:40;;;;;;;5.70;3.02;;;;;;;3.39;100.00;100462.52;1693388;83;21076;-60
2022/11/26 02:32:17;;;;;;;5.55;3.33;;;;;;;3.44;100.00;100472.91;1625128;83;21280;-61
2022/11/26 02:34:55;;;;;;;5.10;3.02;;;;;;;3.43;100.00;100462.27;1695033;82;21391;-60
2022/11/26 02:37:36;;;;;;;7.85;3.87;;;;;;;3.37;100.00;100467.00;1733923;81;21003;-69
2022/11/26 02:40:07;;;;;;;5.00;3.10;;;;;;;3.36;100.00;100467.12;1751134;81;21074;-63
2022/11/26 02:42:35;;;;;;;5.28;3.37;;;;;;;3.37;100.00;100470.87;1733735;82;27381;-61
2022/11/26 02:45:19;;;;;;;6.40;3.77;;;;;;;3.40;100.00;100476.22;1733346;81;21116;-61
2022/11/26 02:47:48;;;;;;;6.22;3.40;;;;;;;3.38;100.00;100469.92;1759397;80;21072;-61
2022/11/26 02:50:32;;;;;;;5.90;3.40;;;;;;;3.39;100.00;100476.69;1733357;81;20966;-63
2022/11/26 02:52:59;;;;;;;7.55;4.17;;;;;;;3.41;100.00;100477.87;1733344;81;20996;-64
2022/11/26 02:55:30;;;;;;;6.65;3.40;;;;;;;3.43;100.00;100475.96;1732512;81;22368;-61
2022/11/26 02:57:58;;;;;;;7.08;3.92;;;;;;;3.43;100.00;100479.83;1733744;81;21261;-61
2022/11/26 03:00:25;;;;;;;5.80;3.52;;;;;;;3.44;100.00;100472.91;1733421;81;20874;-60
2022/11/26 03:03:03;;;;;;;6.08;3.58;;;;;;;3.46;100.00;100479.56;1742038;81;20977;-70
2022/11/26 03:05:33;;;;;;;5.67;3.20;;;;;;;3.48;100.00;100489.25;1733292;78;21101;-61
2022/11/26 03:08:00;;;;;;;5.97;3.75;;;;;;;3.48;100.00;100482.00;1791420;78;21476;-63
2022/11/26 03:10:28;;;;;;;9.98;4.30;;;;;;;3.48;100.00;100487.97;1791413;78;21154;-62
2022/11/26 03:12:55;;;;;;;5.47;3.30;;;;;;;3.48;100.00;100488.45;1790668;78;20931;-71
2022/11/26 03:15:23;;;;;;;6.42;3.87;;;;;;;3.44;100.00;100486.60;1791157;78;20998;-61
2022/11/26 03:17:50;;;;;;;6.50;3.72;;;;;;;3.44;100.00;100490.47;1791392;78;20959;-61
2022/11/26 03:20:17;;;;;;;5.28;3.30;;;;;;;3.54;100.00;100494.37;1771377;80;21136;-62
2022/11/26 03:22:46;;;;;;;8.85;4.30;;;;;;;3.61;100.00;100498.88;1733444;81;21198;-60
2022/11/26 03:25:13;;;;;;;6.70;3.62;;;;;;;3.60;100.00;100498.53;1732501;81;20905;-64
2022/11/26 03:27:43;;;;;;;6.37;3.50;;;;;;;3.62;100.00;100496.62;1733376;81;21503;-60
2022/11/26 03:30:11;;;;;;;6.45;3.77;;;;;;;3.53;100.00;100492.27;1733396;81;21491;-60
2022/11/26 03:32:40;;;;;;;5.78;3.22;;;;;;;3.63;100.00;100498.73;1733380;82;21044;-60
2022/11/26 03:35:08;;;;;;;5.70;3.50;;;;;;;3.63;100.00;100500.02;1733161;81;21261;-69
2022/11/26 03:37:37;;;;;;;6.28;3.40;;;;;;;3.61;100.00;100497.58;1733312;81;21028;-59
2022/11/26 03:40:06;;;;;;;5.55;3.30;;;;;;;3.62;100.00;100505.65;1733480;82;20996;-60
2022/11/26 03:42:33;;;;;;;6.62;3.47;;;;;;;3.63;100.00;100513.72;1733526;81;20949;-60
2022/11/26 03:45:00;;;;;;;5.50;3.27;;;;;;;3.62;100.00;100512.09;1733499;81;20985;-69
2022/11/26 03:47:28;;;;;;;5.25;2.92;;;;;;;3.59;100.00;100513.64;1732540;82;21240;-60
2022/11/26 03:49:55;;;;;;;4.65;2.90;;;;;;;3.60;100.00;100514.00;1757818;81;20984;-60
2022/11/26 03:52:22;;;;;;;4.97;2.60;;;;;;;3.61;100.00;100513.05;1790197;78;20974;-59
2022/11/26 03:54:50;;;;;;;6.17;2.52;;;;;;;3.66;100.00;100517.80;1733408;81;20917;-61
2022/11/26 03:57:19;;;;;;;4.45;2.83;;;;;;;3.69;100.00;100525.76;1732137;81;20965;-60
2022/11/26 03:59:46;;;;;;;5.60;3.00;;;;;;;3.68;100.00;100526.71;1733800;82;21354;-60
2022/11/26 04:02:13;;;;;;;4.85;2.58;;;;;;;3.68;100.00;100529.29;1733589;81;21436;-59
2022/11/26 04:04:41;;;;;;;5.20;2.60;;;;;;;3.69;100.00;100532.20;1733427;82;21007;-60
2022/11/26 04:07:08;;;;;;;4.05;2.47;;;;;;;3.66;100.00;100535.37;1732796;81;20909;-60
2022/11/26 04:09:35;;;;;;;4.90;2.50;;;;;;;3.70;100.00;100546.23;1732287;81;21298;-60
2022/11/26 04:12:03;;;;;;;4.35;2.20;;;;;;;3.57;100.00;100527.15;1733663;81;21885;-61
2022/11/26 04:14:31;;;;;;;4.67;2.52;;;;;;;3.57;100.00;100518.60;1733388;81;21005;-61
2022/11/26 04:16:58;;;;;;;3.83;2.33;;;;;;;3.59;100.00;100520.08;1733500;81;21022;-69
2022/11/26 04:19:25;;;;;;;4.65;2.60;;;;;;;3.64;100.00;100524.87;1732517;81;21463;-60
2022/11/26 04:21:54;;;;;;;4.40;2.42;;;;;;;3.58;100.00;100524.91;1733738;81;21448;-59
2022/11/26 04:24:22;;;;;;;4.72;2.67;;;;;;;3.56;100.00;100525.52;1733580;81;21327;-60
2022/11/26 04:26:49;;;;;;;5.17;2.83;;;;;;;3.58;100.00;100530.53;1733399;82;21501;-59
2022/11/26 04:29:16;;;;;;;5.05;3.27;;;;;;;3.57;100.00;100552.11;1732691;81;20921;-69
2022/11/26 04:31:43;;;;;;;7.37;3.47;;;;;;;3.60;100.00;100544.94;1733814;81;21344;-60
2022/11/26 04:34:11;;;;;;;5.40;3.15;;;;;;;3.60;100.00;100539.78;1733331;81;21549;-59
2022/11/26 04:36:39;;;;;;;4.72;2.70;;;;;;;3.61;100.00;100543.98;1727218;81;21285;-59
2022/11/26 04:39:08;;;;;;;4.85;2.65;;;;;;;3.57;100.00;100543.91;1724001;81;20989;-63
2022/11/26 04:41:35;;;;;;;6.55;2.92;;;;;;;3.58;100.00;100548.58;1722968;81;21068;-60
2022/11/26 04:44:02;;;;;;;5.17;2.60;;;;;;;3.56;100.00;100552.59;1723742;82;21044;-60
2022/11/26 04:46:30;;;;;;;5.10;2.75;;;;;;;3.56;100.00;100558.19;1723923;81;20957;-60
2022/11/26 04:48:57;;;;;;;6.37;3.02;;;;;;;3.53;100.00;100548.98;1723786;81;21276;-59
2022/11/26 04:51:26;;;;;;;5.67;3.22;;;;;;;3.54;100.00;100551.89;1722676;81;21492;-61
2022/11/26 04:53:55;;;;;;;4.72;2.70;;;;;;;3.53;100.00;100554.12;1723659;81;21426;-59
2022/11/26 04:56:23;;;;;;;7.22;2.90;;;;;;;3.54;100.00;100558.33;1723696;81;20934;-60
2022/11/26 04:58:50;;;;;;;5.50;2.90;;;;;;;3.56;100.00;100560.32;1724272;81;21044;-61
2022/11/26 05:01:17;;;;;;;7.62;3.30;;;;;;;3.50;100.00;100554.39;1723632;81;22413;-70
2022/11/26 05:03:45;;;;;;;5.62;3.37;;;;;;;3.52;100.00;100555.53;1723118;81;21368;-59
2022/11/26 05:06:14;;;;;;;5.50;3.08;;;;;;;3.51;100.00;100557.30;1723799;81;20949;-59
2022/11/26 05:08:42;;;;;;;5.50;2.98;;;;;;;3.54;100.00;100570.41;1723799;81;21044;-60
2022/11/26 05:11:09;;;;;;;5.15;2.87;;;;;;;3.52;100.00;100565.36;1723694;83;20957;-60
2022/11/26 05:13:37;;;;;;;6.03;2.83;;;;;;;3.47;100.00;100567.52;1722528;81;21293;-60
2022/11/26 05:16:05;;;;;;;5.50;2.80;;;;;;;3.51;100.00;100571.47;1723765;81;22406;-60
2022/11/26 05:18:33;;;;;;;5.60;3.33;;;;;;;3.45;100.00;100561.70;1722244;82;21055;-60
2022/11/26 05:21:00;;;;;;;5.00;2.80;;;;;;;3.51;100.00;100562.45;1702207;82;21100;-60
2022/11/26 05:23:27;;;;;;;5.13;2.87;;;;;;;3.52;100.00;100564.55;1751602;80;21579;-69
2022/11/26 05:25:54;;;;;;;6.15;3.10;;;;;;;3.55;100.00;100570.27;1723359;83;22317;-59
2022/11/26 05:28:22;;;;;;;5.05;2.83;;;;;;;3.54;100.00;100567.36;1714625;82;21001;-59
2022/11/26 05:30:52;;;;;;;4.95;3.08;;;;;;;3.53;100.00;100572.17;1723732;81;20925;-60
2022/11/26 05:33:19;;;;;;;6.40;3.47;;;;;;;3.54;100.00;100576.37;1697960;83;21013;-67
2022/11/26 05:35:47;;;;;;;6.30;2.80;;;;;;;3.54;100.00;100575.09;1722894;81;21697;-61
2022/11/26 05:38:14;;;;;;;5.30;3.05;;;;;;;3.59;100.00;100577.27;1723851;81;21453;-60
2022/11/26 05:40:41;;;;;;;5.55;2.95;;;;;;;3.56;100.00;100578.81;1723621;83;20976;-59
2022/11/26 05:43:09;;;;;;;5.62;3.15;;;;;;;3.46;100.00;100582.66;1723681;81;20985;-61
2022/11/26 05:45:37;;;;;;;7.33;3.40;;;;;;;3.42;100.00;100594.16;1722931;81;20878;-63
2022/11/26 05:48:05;;;;;;;5.67;2.80;;;;;;;3.45;100.00;100590.05;1723270;81;21429;-62
2022/11/26 05:50:32;;;;;;;8.45;4.40;;;;;;;3.47;100.00;100595.06;1723628;81;22243;-61
2022/11/26 05:53:00;;;;;;;6.45;3.40;;;;;;;3.48;100.00;100598.78;1723694;81;20993;-60
2022/11/26 05:55:27;;;;;;;7.33;3.58;;;;;;;3.47;100.00;100598.45;1723134;81;21012;-71
2022/11/26 05:57:55;;;;;;;6.57;3.73;;;;;;;3.40;100.00;100599.43;1723543;81;22320;-71
2022/11/26 06:00:23;;;;;;;8.10;3.73;;;;;;;3.43;100.00;100599.66;1723517;82;21107;-61
2022/11/26 06:02:51;;;;;;;5.83;3.05;;;;;;;3.46;100.00;100598.59;1723564;81;21239;-61
2022/11/26 06:05:19;;;;;;;5.50;3.13;;;;;;;3.43;100.00;100594.98;1722935;81;20943;-67
2022/11/26 06:07:46;;;;;;;7.22;3.27;;;;;;;3.44;100.00;100587.11;1723756;81;22115;-61
2022/11/26 06:10:13;;;;;;;7.20;3.35;;;;;;;3.44;100.00;100597.89;1723088;81;20957;-60
2022/11/26 06:12:40;;;;;;;7.03;3.70;;;;;;;3.42;100.00;100594.16;1723716;81;21032;-61
2022/11/26 06:15:09;;;;;;;6.10;2.85;;;;;;;3.44;100.00;100601.75;1723757;83;21222;-66
2022/11/26 06:17:36;;;;;;;5.10;2.83;;;;;;;3.43;100.00;100607.38;1723277;81;20961;-67
2022/11/26 06:20:04;;;;;;;6.50;3.45;;;;;;;3.47;100.00;100593.30;1723371;81;21484;-75
2022/11/26 06:22:40;;;;;;;4.70;2.65;;;;;;;3.50;100.00;100593.05;1723710;81;21310;-65
2022/11/26 06:25:08;;;;;;;5.47;3.22;;;;;;;3.48;100.00;100595.40;1723888;81;20858;-75
2022/11/26 06:27:36;;;;;;;4.67;2.62;;;;;;;3.46;100.00;100598.11;1725759;81;21170;-66
2022/11/26 06:30:04;;;;;;;6.47;3.50;;;;;;;3.44;100.00;100596.13;1764341;80;21027;-66
2022/11/26 06:32:32;;;;;;;5.45;2.95;;;;;;;3.45;100.00;100595.20;1765108;81;21107;-65
2022/11/26 06:34:59;;;;;;;6.17;2.90;;;;;;;3.44;100.00;100609.01;1765111;80;21533;-67
2022/11/26 06:37:28;;;;;;;5.72;3.05;;;;;;;3.43;100.00;100613.83;1781051;78;21046;-68
2022/11/26 06:39:56;;;;;;;4.90;2.75;;;;;;;3.47;100.00;100605.37;1791508;78;21257;-74
2022/11/26 06:42:23;;;;;;;5.45;2.80;;;;;;;3.48;100.00;100604.42;1790746;78;20919;-66
2022/11/26 06:44:51;;;;;;;4.37;2.47;;;;;;;3.48;100.00;100603.13;1791214;80;20975;-65
2022/11/26 06:47:19;;;;;;;4.20;2.40;;;;;;;3.49;100.00;100601.73;1790811;78;20980;-71
2022/11/26 06:49:47;;;;;;;5.83;2.37;;;;;;;3.53;100.00;100604.87;1775643;80;21052;-65
2022/11/26 06:52:15;;;;;;;4.45;2.17;;;;;;;3.59;100.00;100605.14;1732777;82;21126;-69
2022/11/26 06:54:43;;;;;;;6.42;2.90;;;;;;;3.58;100.00;100597.55;1733186;82;21063;-67
2022/11/26 06:57:10;;;;;;;4.65;2.50;;;;;;;3.63;100.00;100605.23;1733766;81;21443;-66
2022/11/26 06:59:38;;;;;;;5.00;2.77;;;;;;;3.66;100.00;100619.16;1732620;81;21017;-67
2022/11/26 07:02:06;;;;;;;5.07;2.80;;;;;;;3.66;100.00;100617.05;1733351;81;21764;-74
2022/11/26 07:04:33;;;;;;;5.20;2.73;;;;;;;3.65;100.00;100616.24;1733163;81;21445;-66
2022/11/26 07:07:00;;;;;;;4.17;2.53;;;;;;;3.63;100.00;100616.83;1733334;81;21162;-66
2022/11/26 07:09:27;;;;;;;4.20;2.27;;;;;;;3.68;100.00;100620.33;1733137;81;21222;-68
2022/11/26 07:11:54;;;;;;;4.40;2.40;;;;;;;3.72;100.00;100619.60;1733106;81;20876;-66
2022/11/26 07:14:22;;;;;;;5.70;2.77;;;;;;;3.75;100.00;100632.21;1732717;82;21141;-66
2022/11/26 07:16:50;;;;;;;4.43;2.07;;;;;;;3.75;100.00;100618.03;1733352;82;21286;-66
2022/11/26 07:19:17;;;;;;;5.17;2.60;;;;;;;3.75;100.00;100621.90;1732546;81;21203;-67
2022/11/26 07:21:46;;;;;;;4.50;2.30;;;;;;;3.77;100.00;100622.59;1732684;81;21226;-66
2022/11/26 07:24:13;;;;;;;5.50;2.08;;;;;;;3.80;100.00;100619.77;1732872;81;22587;-71
2022/11/26 07:26:40;;;;;;;3.47;1.70;;;;;;;3.81;100.00;100631.70;1733364;81;21309;-66
2022/11/26 07:29:08;;;;;;;3.70;2.10;;;;;;;3.82;100.00;100632.03;1733403;82;22566;-66
2022/11/26 07:31:36;;;;;;;4.00;2.20;;;;;;;3.82;100.00;100639.30;1732845;82;21414;-68
2022/11/26 07:34:04;;;;;;;4.10;2.40;;;;;;;3.83;100.00;100637.56;1733488;82;21270;-67
2022/11/26 07:36:31;;;;;;;5.92;2.30;;;;;;;3.81;100.00;100642.83;1727355;81;21694;-69
2022/11/26 07:39:00;;;;;;;4.70;2.40;;;;;;;3.82;100.00;100648.80;1680876;83;21544;-66
2022/11/26 07:41:28;;;;;;;4.50;2.50;;;;;;;3.82;100.00;100650.90;1703844;82;22169;-74
2022/11/26 07:43:55;;;;;;;4.70;2.50;;;;;;;3.84;100.00;100653.37;1673838;84;22697;-66
2022/11/26 07:46:23;;;;;;;4.50;2.57;;;;;;;3.84;100.00;100654.18;1750832;81;22511;-67
2022/11/26 07:48:51;;;;;;;3.23;1.90;;;;;;;3.85;100.00;100648.55;1723916;80;22481;-66
2022/11/26 07:51:28;;;;;;;4.67;2.17;;;;;;;3.88;100.00;100652.16;1721936;82;21206;-75
2022/11/26 07:53:58;;;;;;;5.10;2.40;;;;;;;3.94;100.00;100645.20;1721842;82;21330;-76
2022/11/26 07:56:26;;;;;;;5.37;3.05;;;;;;;3.96;100.00;100645.88;1721481;83;22219;-66
2022/11/26 07:58:54;;;;;;;4.85;2.58;;;;;;;3.99;100.00;100646.91;1739097;81;21124;-67
2022/11/26 08:01:25;;;;;;;5.00;2.23;;;;;;;4.12;100.00;100653.11;1749568;81;21011;-67
2022/11/26 08:03:52;;;;;;;5.42;2.85;;;;;;;4.15;100.00;100647.22;1751506;81;21529;-76
2022/11/26 08:06:24;;;;;;;5.03;2.85;;;;;;;4.13;100.00;100648.32;1751188;81;21210;-66
2022/11/26 08:08:51;;;;;;;5.63;2.80;;;;;;;4.12;100.00;100644.09;1751767;80;21480;-66
2022/11/26 08:11:30;;;;;;;4.33;2.03;;;;;;;4.11;100.00;100648.91;1751242;80;21164;-69
2022/11/26 08:14:03;;;;;;;4.12;2.25;;;;;;;4.08;100.00;100649.98;1748414;80;21238;-70
2022/11/26 08:16:30;;;;;;;4.57;1.83;;;;;;;4.11;100.00;100652.30;1694661;83;21134;-66
2022/11/26 08:19:04;;;;;;;4.10;2.57;;;;;;;4.08;100.00;100656.42;1690249;83;21274;-75
2022/11/26 08:21:32;;;;;;;3.37;1.87;;;;;;;4.05;100.00;100659.30;1723444;83;22132;-66
2022/11/26 08:23:59;;;;;;;3.63;1.50;;;;;;;3.99;100.00;100658.99;1695183;82;20992;-66
2022/11/26 08:26:28;;;;;;;4.90;1.90;;;;;;;4.01;100.00;100656.61;1751740;80;21745;-66
2022/11/26 08:28:56;;;;;;;4.20;2.10;;;;;;;3.97;100.00;100660.39;1751349;80;21006;-76
2022/11/26 08:31:26;;;;;;;3.52;1.90;;;;;;;3.99;100.00;100673.18;1751503;80;22251;-67
2022/11/26 08:33:54;;;;;;;3.93;2.10;;;;;;;4.00;100.00;100670.94;1750863;80;21011;-69
2022/11/26 08:36:21;;;;;;;3.60;2.00;;;;;;;4.02;100.00;100667.29;1746258;80;21551;-66
2022/11/26 08:38:49;;;;;;;3.80;1.90;;;;;;;4.04;100.00;100664.56;1738381;80;21215;-67
2022/11/26 08:41:16;;;;;;;3.50;1.80;;;;;;;4.04;100.00;100674.41;1743936;80;21714;-65
2022/11/26 08:43:44;;;;;;;3.72;1.77;;;;;;;4.04;100.00;100664.09;1679997;84;21603;-74
2022/11/26 08:46:11;;;;;;;4.07;1.87;;;;;;;4.07;100.00;100665.60;1717624;82;21364;-65
2022/11/26 08:48:38;;;;;;;3.90;2.07;;;;;;;4.10;100.00;100658.42;1677694;84;21191;-65
2022/11/26 08:51:09;;;;;;;4.63;2.27;;;;;;;4.06;100.00;100659.62;1692375;83;21119;-66
2022/11/26 08:53:36;;;;;;;3.75;1.70;;;;;;;4.05;100.00;100661.03;1714152;83;21119;-70
2022/11/26 08:56:06;;;;;;;4.40;1.80;;;;;;;4.05;100.00;100674.77;1715900;81;22156;-67
2022/11/26 08:58:35;;;;;;;4.83;1.87;;;;;;;4.05;100.00;100656.72;1719352;83;22008;-65
2022/11/26 09:01:16;;;;;;;5.10;2.50;;;;;;;4.05;100.00;100660.58;1702297;83;21688;-64
2022/11/26 09:03:43;;;;;;;5.05;2.65;;;;;;;4.11;100.00;100657.47;1669070;84;21206;-67
2022/11/26 09:06:12;;;;;;;4.77;2.40;;;;;;;4.17;100.00;100665.17;1648152;85;21654;-68
2022/11/26 09:11:27;;;;;;;4.77;2.27;;;;;;;4.18;100.00;100665.50;1690501;84;20933;-66
2022/11/26 09:13:55;;;;;;;5.13;2.83;;;;;;;4.20;100.00;100676.97;1648169;85;21169;-66
2022/11/26 09:16:22;;;;;;;4.13;2.40;;;;;;;4.21;100.00;100686.36;1623034;85;21332;-70
2022/11/26 09:18:50;;;;;;;5.00;3.00;;;;;;;4.08;100.00;100687.86;1691393;84;21282;-65
2022/11/26 09:21:18;;;;;;;5.70;2.67;;;;;;;4.05;100.00;100688.96;1647312;85;21182;-64
2022/11/26 09:23:45;;;;;;;5.60;2.60;;;;;;;4.07;100.00;100683.66;1662772;85;21414;-65
2022/11/26 09:26:14;;;;;;;4.70;2.77;;;;;;;4.07;100.00;100692.21;1703977;84;21375;-68
2022/11/26 09:28:41;;;;;;;5.30;2.87;;;;;;;4.09;100.00;100690.33;1710730;83;21323;-65
2022/11/26 09:31:08;;;;;;;5.97;3.30;;;;;;;4.08;100.00;100695.13;1711844;81;21771;-75
2022/11/26 09:33:36;;;;;;;5.07;3.23;;;;;;;4.11;100.00;100693.58;1716366;82;21337;-65
2022/11/26 09:36:08;;;;;;;7.10;4.00;;;;;;;4.14;100.00;100694.62;1720095;82;21266;-65
2022/11/26 09:38:36;;;;;;;10.23;4.00;;;;;;;4.18;100.00;100703.39;1734008;81;21228;-65
2022/11/26 09:41:31;;;;;;;6.37;4.33;;;;;;;4.18;100.00;100698.23;1759518;80;21263;-73
2022/11/26 09:44:43;;;;;;;6.63;3.50;;;;;;;4.17;100.00;100696.12;1759565;80;21880;-75
2022/11/26 09:47:22;;;;;;;7.37;3.93;;;;;;;4.14;100.00;100696.38;1759688;80;21244;-67
2022/11/26 09:50:04;;;;;;;10.13;4.73;;;;;;;4.10;100.00;100703.56;1759563;80;21217;-64
2022/11/26 09:52:50;;;;;;;7.50;3.90;;;;;;;4.10;100.00;100704.86;1759728;80;21282;-65
2022/11/26 09:55:30;;;;;;;8.35;5.00;;;;;;;4.04;100.00;100705.84;1755769;80;21059;-65
2022/11/26 09:58:39;;;;;;;12.10;5.93;;;;;;;4.02;100.00;100693.09;1764760;80;20920;-65
2022/11/26 10:01:06;;;;;;;7.83;4.60;;;;;;;4.02;100.00;100703.88;1720001;83;21283;-66
2022/11/26 10:03:36;;;;;;;13.40;5.97;;;;;;;3.96;100.00;100706.48;1720821;83;21234;-65
2022/11/26 10:06:34;;;;;;;13.13;5.87;;;;;;;3.93;100.00;100702.88;1720644;83;21187;-75
2022/11/26 10:09:33;;;;;;;10.10;5.33;;;;;;;3.90;100.00;100708.28;1720766;82;21923;-64
2022/11/26 10:12:32;;;;;;;8.23;4.50;;;;;;;3.89;100.00;100718.26;1704848;83;22788;-66
2022/11/26 10:15:19;;;;;;;9.57;5.00;;;;;;;3.84;100.00;100719.13;1691601;84;21299;-70
2022/11/26 10:18:00;;;;;;;12.30;5.73;;;;;;;3.83;100.00;100722.66;1691199;83;21327;-66
2022/11/26 10:20:48;;;;;;;;;;;;;;;3.83;100.00;100728.63;1709698;83;22138;-72
2022/11/26 10:23:26;;;;;;;9.98;5.15;;;;;;;3.79;100.00;100731.56;1738272;81;20088;-67
2022/11/26 10:26:07;;;;;;;9.18;4.92;;;;;;;3.75;100.00;100725.03;1734525;81;21012;-66
2022/11/26 10:28:39;;;;;;;10.27;5.50;;;;;;;3.73;100.00;100728.22;1704068;83;21227;-66
2022/11/26 10:31:20;;;;;;;12.03;5.25;;;;;;;3.70;100.00;100728.00;1700096;83;21322;-67
2022/11/26 10:33:52;;;;;;;11.10;5.97;;;;;;;3.74;100.00;100732.43;1702903;83;21009;-68
2022/11/26 10:36:30;;;;;;;14.05;6.22;;;;;;;3.74;100.00;100731.14;1714081;83;21296;-69
2022/11/26 10:38:57;;;;;;;12.35;6.30;;;;;;;3.76;100.00;100726.69;1717410;82;21527;-68
2022/11/26 10:41:28;;;;;;;12.87;6.60;;;;;;;3.74;100.00;100731.14;1717356;83;21529;-70
2022/11/26 10:43:58;;;;;;;12.10;5.85;;;;;;;3.76;100.00;100726.21;1717706;83;21394;-69
2022/11/26 10:46:35;;;;;;;11.70;6.70;;;;;;;3.78;100.00;100717.05;1691194;83;21000;-68
2022/11/26 10:49:25;;;;;;;11.63;5.65;;;;;;;3.80;100.00;100722.43;1714614;82;20975;-72
2022/11/26 10:52:02;;;;;;;12.70;6.67;;;;;;;3.79;100.00;100726.41;1661706;82;21627;-75
2022/11/26 10:54:36;;;;;;;12.88;6.58;;;;;;;3.81;100.00;100727.92;1698346;84;21316;-68
2022/11/26 10:57:11;;;;;;;11.75;6.00;;;;;;;3.78;100.00;100735.91;1698003;84;21002;-68
2022/11/26 10:59:50;;;;;;;12.10;5.50;;;;;;;3.75;100.00;100731.48;1711118;81;20992;-72
2022/11/26 11:02:26;;;;;;;11.70;5.65;;;;;;;3.70;100.00;100727.19;1730646;82;21010;-67
2022/11/26 11:04:58;;;;;;;15.65;6.50;;;;;;;3.71;100.00;100724.47;1723509;83;22151;-66
2022/11/26 11:07:39;;;;;;;10.60;5.65;;;;;;;3.71;100.00;100733.97;1740397;82;21328;-67
2022/11/26 11:10:14;;;;;;;13.03;5.60;;;;;;;3.61;100.00;100734.73;1722805;83;21567;-74
2022/11/26 11:12:49;;;;;;;15.23;5.92;;;;;;;3.64;100.00;100734.97;1737147;82;21278;-66
2022/11/26 11:15:26;;;;;;;13.55;5.50;;;;;;;3.64;100.00;100731.91;1693969;83;21397;-67
2022/11/26 11:18:05;;;;;;;10.95;5.60;;;;;;;3.63;100.00;100728.97;1694234;84;20946;-68
2022/11/26 11:20:37;;;;;;;17.32;5.20;;;;;;;3.69;100.00;100728.95;1694450;83;22450;-67
2022/11/26 11:23:18;;;;;;;12.15;6.10;;;;;;;3.73;100.00;100728.22;1693736;83;20890;-67
2022/11/26 11:26:02;;;;;;;12.73;7.40;;;;;;;3.72;100.00;100726.60;1693702;84;20999;-69
2022/11/26 11:28:31;;;;;;;11.68;7.47;;;;;;;3.77;100.00;100725.73;1694036;84;20945;-74
2022/11/26 11:31:18;;;;;;;11.53;7.80;;;;;;;3.80;100.00;100734.52;1704295;83;21165;-67
2022/11/26 11:33:45;;;;;;;12.68;6.80;;;;;;;3.79;100.00;100734.98;1723183;83;22484;-66
2022/11/26 11:36:17;;;;;;;13.27;8.10;;;;;;;3.80;100.00;100737.91;1722681;83;20974;-68
2022/11/26 11:38:54;;;;;;;22.65;12.78;;;;;;;3.77;100.00;100739.44;1734524;82;21184;-65
2022/11/26 11:41:44;;;;;;;12.45;6.47;;;;;;;3.76;100.00;100737.81;1735761;82;21007;-65
2022/11/26 11:44:21;;;;;;;48.78;22.65;;;;;;;3.73;100.00;100739.35;1724018;83;21113;-65
2022/11/26 11:47:35;;;;;;;12.60;7.00;;;;;;;3.70;100.00;100739.59;1735501;82;21842;-67